createdAt,value
2018-09-03T00:01:45.219Z,8.78
2018-09-03T00:04:31.788Z,9.67
2018-09-03T00:07:00.260Z,8.67
2018-09-03T00:09:32.954Z,9.05
2018-09-03T00:12:01.388Z,10.65
2018-09-03T00:14:29.850Z,8.97
2018-09-03T00:16:58.287Z,9.75
2018-09-03T00:19:26.823Z,10.30
2018-09-03T00:21:55.257Z,9.73
2018-09-03T00:24:23.600Z,9.95
2018-09-03T00:26:52.077Z,8.73
2018-09-03T00:29:20.520Z,10.20
2018-09-03T00:32:51.748Z,9.65
2018-09-03T00:35:25.433Z,9.23
2018-09-03T00:38:00.161Z,10.83
2018-09-03T00:40:33.840Z,10.30
2018-09-03T00:43:07.693Z,11.57
2018-09-03T00:45:41.993Z,10.35
2018-09-03T00:48:10.403Z,7.37
2018-09-03T00:50:38.820Z,10.17
2018-09-03T00:53:07.196Z,13.10
2018-09-03T00:55:35.584Z,11.03
2018-09-03T00:58:04.030Z,9.80
2018-09-03T01:00:32.584Z,10.00
2018-09-03T01:03:01.040Z,9.30
2018-09-03T01:05:29.481Z,12.03
2018-09-03T01:07:58.440Z,10.73
2018-09-03T01:10:26.858Z,11.00
2018-09-03T01:12:55.331Z,14.33
2018-09-03T01:15:24.123Z,9.73
2018-09-03T01:17:52.633Z,14.98
2018-09-03T01:20:20.978Z,12.70
2018-09-03T01:22:49.474Z,14.60
2018-09-03T01:25:17.913Z,13.50
2018-09-03T01:27:47.465Z,13.30
2018-09-03T01:30:15.893Z,11.00
2018-09-03T01:32:44.404Z,15.23
2018-09-03T01:35:12.823Z,13.17
2018-09-03T01:37:41.202Z,11.45
2018-09-03T01:40:09.678Z,9.13
2018-09-03T01:42:38.140Z,14.10
2018-09-03T01:45:06.632Z,18.07
2018-09-03T01:47:35.279Z,11.93
2018-09-03T01:50:03.705Z,13.43
2018-09-03T01:52:32.116Z,12.37
2018-09-03T01:55:01.306Z,11.60
2018-09-03T01:57:30.555Z,13.43
2018-09-03T01:59:59.477Z,12.33
2018-09-03T02:02:27.881Z,12.47
2018-09-03T02:04:56.235Z,12.73
2018-09-03T02:07:24.667Z,12.90
2018-09-03T02:09:53.213Z,13.43
2018-09-03T02:12:21.613Z,13.68
2018-09-03T02:14:50.042Z,12.17
2018-09-03T02:17:18.493Z,12.87
2018-09-03T02:19:46.944Z,14.83
2018-09-03T02:22:15.329Z,14.23
2018-09-03T02:24:43.725Z,15.23
2018-09-03T02:27:12.127Z,15.30
2018-09-03T02:29:40.531Z,14.93
2018-09-03T02:32:09.546Z,14.80
2018-09-03T02:34:37.978Z,13.47
2018-09-03T02:37:06.405Z,15.48
2018-09-03T02:39:34.769Z,14.03
2018-09-03T02:42:03.185Z,13.17
2018-09-03T02:44:31.631Z,13.28
2018-09-03T02:47:00.087Z,12.70
2018-09-03T02:49:28.493Z,20.07
2018-09-03T02:51:56.915Z,12.67
2018-09-03T02:54:25.345Z,14.77
2018-09-03T02:56:53.791Z,13.03
2018-09-03T02:59:22.267Z,14.37
2018-09-03T03:01:50.897Z,11.27
2018-09-03T03:04:19.763Z,14.00
2018-09-03T03:06:48.690Z,11.00
2018-09-03T03:09:17.076Z,12.80
2018-09-03T03:11:45.592Z,15.63
2018-09-03T03:14:13.966Z,13.85
2018-09-03T03:16:47.084Z,12.37
2018-09-03T03:19:15.443Z,12.80
2018-09-03T03:21:43.890Z,11.93
2018-09-03T03:24:13.207Z,11.37
2018-09-03T03:26:41.568Z,11.73
2018-09-03T03:29:10.814Z,16.50
2018-09-03T03:31:39.232Z,11.20
2018-09-03T03:34:07.672Z,15.00
2018-09-03T03:36:36.052Z,13.23
2018-09-03T03:39:06.329Z,16.93
2018-09-03T03:41:34.762Z,15.28
2018-09-03T03:44:03.351Z,17.20
2018-09-03T03:46:31.847Z,13.83
2018-09-03T03:49:00.325Z,14.47
2018-09-03T03:51:28.772Z,12.60
2018-09-03T03:53:57.136Z,13.40
2018-09-03T03:56:25.592Z,14.13
2018-09-03T03:58:54.043Z,13.93
2018-09-03T04:01:22.420Z,17.73
2018-09-03T04:03:51.162Z,14.27
2018-09-03T04:06:19.564Z,18.63
2018-09-03T04:08:47.993Z,16.02
2018-09-03T04:11:16.387Z,18.20
2018-09-03T04:13:45.452Z,17.10
2018-09-03T04:16:13.866Z,13.80
2018-09-03T04:18:42.241Z,25.23
2018-09-03T04:21:11.373Z,14.93
2018-09-03T04:23:39.795Z,15.83
2018-09-03T04:26:08.229Z,17.80
2018-09-03T04:28:36.666Z,16.40
2018-09-03T04:31:05.327Z,18.80
2018-09-03T04:33:33.786Z,16.30
2018-09-03T04:36:03.129Z,13.88
2018-09-03T04:38:31.595Z,16.37
2018-09-03T04:41:00.040Z,18.10
2018-09-03T04:43:28.441Z,15.67
2018-09-03T04:45:56.884Z,19.30
2018-09-03T04:48:25.349Z,21.43
2018-09-03T04:50:54.317Z,20.47
2018-09-03T04:53:22.815Z,19.90
2018-09-03T04:55:51.275Z,22.95
2018-09-03T04:58:19.922Z,20.17
2018-09-03T05:00:48.442Z,20.17
2018-09-03T05:03:16.886Z,19.65
2018-09-03T05:05:49.137Z,20.77
2018-09-03T05:08:17.560Z,20.73
2018-09-03T05:10:45.941Z,15.87
2018-09-03T05:13:14.341Z,23.33
2018-09-03T05:15:42.880Z,14.73
2018-09-03T05:18:12.276Z,19.27
2018-09-03T05:20:40.737Z,21.00
2018-09-03T05:23:09.284Z,18.50
2018-09-03T05:25:37.676Z,21.90
2018-09-03T05:28:06.726Z,18.53
2018-09-03T05:30:35.209Z,20.27
2018-09-03T05:33:03.825Z,21.73
2018-09-03T05:35:33.766Z,20.27
2018-09-03T05:38:02.628Z,24.75
2018-09-03T05:40:37.577Z,23.23
2018-09-03T05:43:06.028Z,19.67
2018-09-03T05:45:34.527Z,21.80
2018-09-03T05:48:02.972Z,22.83
2018-09-03T05:50:31.475Z,23.33
2018-09-03T05:53:00.731Z,21.17
2018-09-03T05:55:29.211Z,20.10
2018-09-03T05:57:57.610Z,19.67
2018-09-03T06:00:26.060Z,23.43
2018-09-03T06:02:54.509Z,23.03
2018-09-03T06:05:23.042Z,22.90
2018-09-03T06:07:51.470Z,21.50
2018-09-03T06:10:19.890Z,18.33
2018-09-03T06:12:48.359Z,19.07
2018-09-03T06:15:16.822Z,21.93
2018-09-03T06:17:45.475Z,16.23
2018-09-03T06:20:13.814Z,21.33
2018-09-03T06:22:42.261Z,19.10
2018-09-03T06:25:11.240Z,21.03
2018-09-03T06:27:39.650Z,20.10
2018-09-03T06:30:08.249Z,21.93
2018-09-03T06:32:36.727Z,18.15
2018-09-03T06:35:05.139Z,16.70
2018-09-03T06:37:33.597Z,22.23
2018-09-03T06:40:02.052Z,21.00
2018-09-03T06:42:30.605Z,23.13
2018-09-03T06:44:59.031Z,22.13
2018-09-03T06:47:27.506Z,22.60
2018-09-03T06:49:56.130Z,19.33
2018-09-03T06:52:24.505Z,24.00
2018-09-03T06:54:53.142Z,23.57
2018-09-03T06:57:21.710Z,21.17
2018-09-03T06:59:51.065Z,21.73
2018-09-03T07:02:19.543Z,22.25
2018-09-03T07:04:47.931Z,21.13
2018-09-03T07:07:16.370Z,21.35
2018-09-03T07:09:44.806Z,26.57
2018-09-03T07:12:13.274Z,23.57
2018-09-03T07:14:41.708Z,26.63
2018-09-03T07:17:10.142Z,22.83
2018-09-03T07:19:38.803Z,24.20
2018-09-03T07:22:07.199Z,26.60
2018-09-03T07:24:35.641Z,27.90
2018-09-03T07:27:04.135Z,26.53
2018-09-03T07:29:32.608Z,27.25
2018-09-03T07:32:01.032Z,28.37
2018-09-03T07:34:29.482Z,28.52
2018-09-03T07:36:57.952Z,31.73
2018-09-03T07:39:26.393Z,31.47
2018-09-03T07:41:54.795Z,31.13
2018-09-03T07:44:23.205Z,28.10
2018-09-03T07:46:51.612Z,28.92
2018-09-03T07:49:20.019Z,29.57
2018-09-03T07:51:48.498Z,25.02
2018-09-03T07:54:16.947Z,25.50
2018-09-03T07:56:45.397Z,31.55
2018-09-03T07:59:13.824Z,27.33
2018-09-03T08:01:42.215Z,34.70
2018-09-03T08:04:10.606Z,24.47
2018-09-03T08:06:39.053Z,28.10
2018-09-03T08:09:09.201Z,31.85
2018-09-03T08:11:38.451Z,30.43
2018-09-03T08:14:06.837Z,24.63
2018-09-03T08:16:35.238Z,26.10
2018-09-03T08:19:03.672Z,24.87
2018-09-03T08:21:32.114Z,25.40
2018-09-03T08:24:00.572Z,26.10
2018-09-03T08:26:29.005Z,29.57
2018-09-03T08:28:57.420Z,25.30
2018-09-03T08:31:25.870Z,23.90
2018-09-03T08:33:54.320Z,26.63
2018-09-03T08:36:22.734Z,25.10
2018-09-03T08:38:51.259Z,25.07
2018-09-03T08:41:19.617Z,21.73
2018-09-03T08:43:47.982Z,23.47
2018-09-03T08:46:16.445Z,26.77
2018-09-03T08:48:44.970Z,23.00
2018-09-03T08:51:13.390Z,25.15
2018-09-03T08:53:41.942Z,21.13
2018-09-03T08:56:10.430Z,23.00
2018-09-03T08:58:38.945Z,18.67
2018-09-03T09:01:07.425Z,20.47
2018-09-03T09:03:41.524Z,24.70
2018-09-03T09:06:10.372Z,22.80
2018-09-03T09:08:38.868Z,19.00
2018-09-03T09:11:08.177Z,21.35
2018-09-03T09:13:36.617Z,19.30
2018-09-03T09:16:05.148Z,19.17
2018-09-03T09:18:33.613Z,23.87
2018-09-03T09:21:02.029Z,22.53
2018-09-03T09:23:30.767Z,19.95
2018-09-03T09:25:59.175Z,20.63
2018-09-03T09:28:27.570Z,18.98
2018-09-03T09:30:56.020Z,18.45
2018-09-03T09:33:24.458Z,20.37
2018-09-03T09:35:52.910Z,22.37
2018-09-03T09:38:21.535Z,20.40
2018-09-03T09:40:50.105Z,20.07
2018-09-03T09:43:18.579Z,19.40
2018-09-03T09:45:47.026Z,20.10
2018-09-03T09:48:15.456Z,19.60
2018-09-03T09:50:43.940Z,22.93
2018-09-03T09:53:12.311Z,20.07
2018-09-03T09:55:41.049Z,20.50
2018-09-03T09:58:09.504Z,24.70
2018-09-03T10:00:43.317Z,26.33
2018-09-03T10:03:11.962Z,24.00
2018-09-03T10:05:40.389Z,24.43
2018-09-03T10:08:09.769Z,19.83
2018-09-03T10:10:38.269Z,21.20
2018-09-03T10:13:06.655Z,25.13
2018-09-03T10:15:35.165Z,24.07
2018-09-03T10:18:03.680Z,25.07
2018-09-03T10:20:32.056Z,24.83
2018-09-03T10:23:00.477Z,20.37
2018-09-03T10:25:28.900Z,21.03
2018-09-03T10:27:57.364Z,19.10
2018-09-03T10:30:26.273Z,20.80
2018-09-03T10:32:54.812Z,21.93
2018-09-03T10:35:23.324Z,18.70
2018-09-03T10:37:51.767Z,22.47
2018-09-03T10:40:20.240Z,20.57
2018-09-03T10:42:48.680Z,21.13
2018-09-03T10:45:17.113Z,26.40
2018-09-03T10:47:45.535Z,22.43
2018-09-03T10:50:14.006Z,20.47
2018-09-03T10:52:42.723Z,23.90
2018-09-03T10:55:11.291Z,22.43
2018-09-03T10:57:40.014Z,25.72
2018-09-03T11:00:08.447Z,18.90
2018-09-03T11:02:36.869Z,27.00
2018-09-03T11:05:05.346Z,25.80
2018-09-03T11:07:33.887Z,23.53
2018-09-03T11:10:02.491Z,23.70
2018-09-03T11:12:31.116Z,22.47
2018-09-03T11:14:59.704Z,22.80
2018-09-03T11:17:28.184Z,25.63
2018-09-03T11:19:59.835Z,24.50
2018-09-03T11:22:28.302Z,25.77
2018-09-03T11:24:57.826Z,23.27
2018-09-03T11:27:26.301Z,24.10
2018-09-03T11:29:54.704Z,35.78
2018-09-03T11:32:23.138Z,27.90
2018-09-03T11:34:51.538Z,26.50
2018-09-03T11:37:20.289Z,23.17
2018-09-03T11:39:48.781Z,21.33
2018-09-03T11:42:17.187Z,24.03
2018-09-03T11:44:45.705Z,27.43
2018-09-03T11:47:14.191Z,25.40
2018-09-03T11:49:42.769Z,24.32
2018-09-03T11:52:11.255Z,26.07
2018-09-03T11:54:40.817Z,23.50
2018-09-03T11:57:09.261Z,29.93
2018-09-03T11:59:37.959Z,23.85
2018-09-03T12:02:06.893Z,26.03
2018-09-03T12:04:35.343Z,22.87
2018-09-03T12:07:03.873Z,21.50
2018-09-03T12:09:32.284Z,22.42
2018-09-03T12:12:00.732Z,21.30
2018-09-03T12:14:31.628Z,23.93
2018-09-03T12:17:00.532Z,26.67
2018-09-03T12:19:29.011Z,29.80
2018-09-03T12:21:57.599Z,31.80
2018-09-03T12:24:26.011Z,23.50
2018-09-03T12:26:54.505Z,18.67
2018-09-03T12:29:22.928Z,21.80
2018-09-03T12:31:51.348Z,24.53
2018-09-03T12:34:20.049Z,23.93
2018-09-03T12:36:48.483Z,24.57
2018-09-03T12:39:16.929Z,22.70
2018-09-03T12:41:45.280Z,28.73
2018-09-03T12:44:14.400Z,23.37
2018-09-03T12:46:43.358Z,21.93
2018-09-03T12:49:11.733Z,24.93
2018-09-03T12:51:40.199Z,28.63
2018-09-03T12:54:08.692Z,22.48
2018-09-03T12:56:37.100Z,22.13
2018-09-03T12:59:05.728Z,23.75
2018-09-03T13:01:34.133Z,23.87
2018-09-03T13:04:02.613Z,19.73
2018-09-03T13:06:31.060Z,22.17
2018-09-03T13:08:59.531Z,23.50
2018-09-03T13:11:28.022Z,24.17
2018-09-03T13:13:56.372Z,25.12
2018-09-03T13:16:24.884Z,22.30
2018-09-03T13:18:53.334Z,29.83
2018-09-03T13:21:21.776Z,16.13
2018-09-03T13:23:50.258Z,20.63
2018-09-03T13:26:18.692Z,20.40
2018-09-03T13:28:47.112Z,18.35
2018-09-03T13:31:15.531Z,19.10
2018-09-03T13:33:44.057Z,21.80
2018-09-03T13:36:12.513Z,16.53
2018-09-03T13:38:40.994Z,16.87
2018-09-03T13:41:09.445Z,18.17
2018-09-03T13:43:37.992Z,18.63
2018-09-03T13:46:06.576Z,16.70
2018-09-03T13:48:35.259Z,17.03
2018-09-03T13:51:03.725Z,17.77
2018-09-03T13:53:32.089Z,20.73
2018-09-03T13:56:00.957Z,17.25
2018-09-03T13:58:29.357Z,17.93
2018-09-03T14:00:57.802Z,16.37
2018-09-03T14:03:26.244Z,17.47
2018-09-03T14:05:54.664Z,18.05
2018-09-03T14:08:23.074Z,19.10
2018-09-03T14:10:51.483Z,17.37
2018-09-03T14:13:19.965Z,13.63
2018-09-03T14:15:48.392Z,16.10
2018-09-03T14:18:16.762Z,15.13
2018-09-03T14:20:45.216Z,13.40
2018-09-03T14:23:13.646Z,12.50
2018-09-03T14:25:42.651Z,13.80
2018-09-03T14:28:11.116Z,15.80
2018-09-03T14:30:39.569Z,14.63
2018-09-03T14:33:08.058Z,13.80
2018-09-03T14:35:36.501Z,13.58
2018-09-03T14:38:04.961Z,14.60
2018-09-03T14:40:33.348Z,13.37
2018-09-03T14:43:01.882Z,15.87
2018-09-03T14:45:30.204Z,14.93
2018-09-03T14:47:58.696Z,12.40
2018-09-03T14:50:27.133Z,15.50
2018-09-03T14:52:55.592Z,13.37
2018-09-03T14:55:24.436Z,14.13
2018-09-03T14:57:52.862Z,17.10
2018-09-03T15:00:21.357Z,14.40
2018-09-03T15:02:49.766Z,18.43
2018-09-03T15:05:18.708Z,15.27
2018-09-03T15:07:47.163Z,16.00
2018-09-03T15:10:15.569Z,14.93
2018-09-03T15:12:44.008Z,16.17
2018-09-03T15:15:12.539Z,13.97
2018-09-03T15:17:40.967Z,14.23
2018-09-03T15:20:09.458Z,13.17
2018-09-03T15:22:37.912Z,14.77
2018-09-03T15:25:06.420Z,14.53
2018-09-03T15:27:34.837Z,15.40
2018-09-03T15:30:03.365Z,13.50
2018-09-03T15:32:31.780Z,15.83
2018-09-03T15:35:00.201Z,16.80
2018-09-03T15:37:28.955Z,12.87
2018-09-03T15:39:57.783Z,19.00
2018-09-03T15:42:26.607Z,14.50
2018-09-03T15:44:55.009Z,14.07
2018-09-03T15:47:23.628Z,16.90
2018-09-03T15:49:52.229Z,12.93
2018-09-03T15:52:20.601Z,14.60
2018-09-03T15:54:49.094Z,12.93
2018-09-03T15:57:17.544Z,14.23
2018-09-03T15:59:46.024Z,13.67
2018-09-03T16:02:14.413Z,12.85
2018-09-03T16:04:42.994Z,15.13
2018-09-03T16:07:11.421Z,13.10
2018-09-03T16:09:39.922Z,14.30
2018-09-03T16:12:08.393Z,12.93
2018-09-03T16:14:36.833Z,11.67
2018-09-03T16:17:05.451Z,13.77
2018-09-03T16:19:33.862Z,13.40
2018-09-03T16:22:02.258Z,10.07
2018-09-03T16:24:30.628Z,14.38
2018-09-03T16:26:59.091Z,15.73
2018-09-03T16:29:27.508Z,14.20
2018-09-03T16:31:56.041Z,12.60
2018-09-03T16:34:27.988Z,12.47
2018-09-03T16:36:56.371Z,13.70
2018-09-03T16:39:24.852Z,12.90
2018-09-03T16:41:53.345Z,12.90
2018-09-03T16:44:21.668Z,12.43
2018-09-03T16:46:50.086Z,12.83
2018-09-03T16:49:18.501Z,15.80
2018-09-03T16:51:47.222Z,16.40
2018-09-03T16:54:15.657Z,13.37
2018-09-03T16:56:44.050Z,12.63
2018-09-03T16:59:12.519Z,16.10
2018-09-03T17:01:40.945Z,13.70
2018-09-03T17:04:09.473Z,11.63
2018-09-03T17:06:37.892Z,12.70
2018-09-03T17:09:07.154Z,12.00
2018-09-03T17:11:35.600Z,12.90
2018-09-03T17:14:04.109Z,11.60
2018-09-03T17:16:32.592Z,12.57
2018-09-03T17:19:01.112Z,11.10
2018-09-03T17:21:29.586Z,16.13
2018-09-03T17:23:58.081Z,12.10
2018-09-03T17:26:26.492Z,11.30
2018-09-03T17:28:55.199Z,12.67
2018-09-03T17:31:23.560Z,11.93
2018-09-03T17:33:52.098Z,11.37
2018-09-03T17:36:20.545Z,13.00
2018-09-03T17:38:48.978Z,10.67
2018-09-03T17:41:17.594Z,12.20
2018-09-03T17:43:46.252Z,11.17
2018-09-03T17:46:14.733Z,12.80
2018-09-03T17:48:43.258Z,10.72
2018-09-03T17:51:12.804Z,12.07
2018-09-03T17:53:41.474Z,10.67
2018-09-03T17:56:10.123Z,14.50
2018-09-03T17:58:38.667Z,15.80
2018-09-03T18:01:07.126Z,14.40
2018-09-03T18:03:36.495Z,14.90
2018-09-03T18:06:04.976Z,14.43
2018-09-03T18:08:33.497Z,15.00
2018-09-03T18:11:01.933Z,13.70
2018-09-03T18:13:30.500Z,17.07
2018-09-03T18:15:59.325Z,17.83
2018-09-03T18:18:28.176Z,19.40
2018-09-03T18:20:56.721Z,19.05
2018-09-03T18:23:25.467Z,17.30
2018-09-03T18:25:53.891Z,17.40
2018-09-03T18:28:22.422Z,19.87
2018-09-03T18:30:50.957Z,18.62
2018-09-03T18:33:19.407Z,17.27
2018-09-03T18:35:48.640Z,15.87
2018-09-03T18:38:17.123Z,17.10
2018-09-03T18:40:45.680Z,15.50
2018-09-03T18:43:14.267Z,18.33
2018-09-03T18:45:42.926Z,17.70
2018-09-03T18:48:11.955Z,22.53
2018-09-03T18:50:40.432Z,17.90
2018-09-03T18:53:10.025Z,22.02
2018-09-03T18:55:38.892Z,20.50
2018-09-03T18:58:07.859Z,19.27
2018-09-03T19:00:36.692Z,17.60
2018-09-03T19:03:05.479Z,20.60
2018-09-03T19:05:34.286Z,19.53
2018-09-03T19:08:03.161Z,20.27
2018-09-03T19:10:31.764Z,19.32
2018-09-03T19:13:00.621Z,20.23
2018-09-03T19:15:30.124Z,22.60
2018-09-03T19:17:59.158Z,22.73
2018-09-03T19:20:28.830Z,23.97
2018-09-03T19:22:57.281Z,25.67
2018-09-03T19:25:25.758Z,24.70
2018-09-03T19:27:54.275Z,20.20
2018-09-03T19:30:23.036Z,21.75
2018-09-03T19:32:51.560Z,22.47
2018-09-03T19:35:20.326Z,21.73
2018-09-03T19:37:48.806Z,24.63
2018-09-03T19:40:17.484Z,22.90
2018-09-03T19:42:45.856Z,23.07
2018-09-03T19:45:14.464Z,23.53
2018-09-03T19:47:42.979Z,22.60
2018-09-03T19:50:11.480Z,20.83
2018-09-03T19:52:39.920Z,20.05
2018-09-03T19:55:08.388Z,25.17
2018-09-03T19:57:36.893Z,23.17
2018-09-03T20:00:05.437Z,21.35
2018-09-03T20:02:33.895Z,22.87
2018-09-03T20:05:02.392Z,24.17
2018-09-03T20:07:31.022Z,25.27
2018-09-03T20:09:59.542Z,27.85
2018-09-03T20:12:28.042Z,32.13
2018-09-03T20:14:56.476Z,28.20
2018-09-03T20:17:25.082Z,32.17
2018-09-03T20:19:53.930Z,29.50
2018-09-03T20:22:22.364Z,27.03
2018-09-03T20:24:50.856Z,26.67
2018-09-03T20:27:19.339Z,26.93
2018-09-03T20:29:47.926Z,31.50
2018-09-03T20:32:16.344Z,30.20
2018-09-03T20:34:45.736Z,31.82
2018-09-03T20:37:14.278Z,36.13
2018-09-03T20:39:48.330Z,29.87
2018-09-03T20:42:17.192Z,29.90
2018-09-03T20:44:49.925Z,29.43
2018-09-03T20:47:21.720Z,33.80
2018-09-03T20:49:50.121Z,35.10
2018-09-03T20:52:18.622Z,36.43
2018-09-03T20:54:47.735Z,30.97
2018-09-03T20:57:17.151Z,31.00
2018-09-03T20:59:46.471Z,35.93
2018-09-03T21:02:14.996Z,37.40
2018-09-03T21:04:43.436Z,39.37
2018-09-03T21:07:12.267Z,36.80
2018-09-03T21:09:41.060Z,32.63
2018-09-03T21:12:09.504Z,42.07
2018-09-03T21:14:45.714Z,30.77
2018-09-03T21:17:15.313Z,36.83
2018-09-03T21:19:43.690Z,33.70
2018-09-03T21:22:12.197Z,40.80
2018-09-03T21:24:40.636Z,37.50
2018-09-03T21:27:09.081Z,44.80
2018-09-03T21:29:37.456Z,38.50
2018-09-03T21:32:05.892Z,41.70
2018-09-03T21:34:34.403Z,33.48
2018-09-03T21:37:02.830Z,37.53
2018-09-03T21:39:31.214Z,38.67
2018-09-03T21:41:59.720Z,42.43
2018-09-03T21:44:28.233Z,36.13
2018-09-03T21:46:56.737Z,38.27
2018-09-03T21:49:25.241Z,38.50
2018-09-03T21:51:53.753Z,47.67
2018-09-03T22:02:42.448Z,41.47
2018-09-03T22:05:10.871Z,43.87
2018-09-03T22:07:39.356Z,46.57
2018-09-03T22:10:07.862Z,45.63
2018-09-03T22:12:36.282Z,47.20
2018-09-03T22:15:04.749Z,52.57
2018-09-03T22:17:33.135Z,47.35
2018-09-03T22:20:01.545Z,45.27
2018-09-03T22:22:29.950Z,43.90
2018-09-03T22:24:58.303Z,41.30
2018-09-03T22:27:26.735Z,47.00
2018-09-03T22:29:55.152Z,48.87
2018-09-03T22:32:23.532Z,48.77
2018-09-03T22:34:51.923Z,47.97
2018-09-03T22:37:20.372Z,50.07
2018-09-03T22:39:48.864Z,46.73
2018-09-03T22:42:17.504Z,47.03
2018-09-03T22:44:45.909Z,51.37
2018-09-03T22:47:14.318Z,46.40
2018-09-03T22:49:43.593Z,52.30
2018-09-03T22:52:12.533Z,47.83
2018-09-03T22:54:41.622Z,50.30
2018-09-03T22:57:10.308Z,48.53
2018-09-03T23:02:21.397Z,53.60
2018-09-03T23:04:49.818Z,60.93
2018-09-03T23:07:18.314Z,53.10
2018-09-03T23:09:46.701Z,55.17
2018-09-03T23:12:16.979Z,59.47
2018-09-03T23:14:45.321Z,52.63
2018-09-03T23:17:13.793Z,59.80
2018-09-03T23:19:42.174Z,54.10
2018-09-03T23:22:10.585Z,56.08
2018-09-03T23:24:38.981Z,57.17
2018-09-03T23:27:08.367Z,56.33
2018-09-03T23:29:36.797Z,49.00
2018-09-03T23:32:05.257Z,53.53
2018-09-03T23:34:33.679Z,48.70
2018-09-03T23:37:02.079Z,59.00
2018-09-03T23:39:30.465Z,56.80
2018-09-03T23:41:59.001Z,49.97
2018-09-03T23:44:27.328Z,54.80
2018-09-03T23:46:55.702Z,59.50
2018-09-03T23:49:24.124Z,61.93
2018-09-03T23:51:52.547Z,55.43
2018-09-03T23:54:20.939Z,49.53
2018-09-03T23:56:49.344Z,61.63
2018-09-03T23:59:17.772Z,57.63
